Hauptseite
METAR-TAF:

METAR-TAF

Flughäfen :

Port Moresby, Papua-Neuguinea

Flughafen Port Moresby

Breite: 09-26S, Länge: 147-13E, Höhe: 38 m

Beobachtung

Neuester Wetterbericht von vor 45 Minuten, um 13:00 UTC
Wind 3 kt aus Nordost
Temperatur 27°C
Luftfeuchtigkeit 89%
Luftdruck 1009 hPa
Sichtweite 10 km oder mehr
Durchbrochene Bewölkung in der Höhe von 4000 ft

METAR: AYPY 281300Z 04003KT 9999 BKN040 27/25 Q1009

Zeit: 23:45 (13:45 UTC)

Prognose

Neuester Wetterbericht von vor 4 Stunden und 15 Minuten, um 09:30 UTC
Gültige Prognose vom 28 um 12 UTC bis 29 um 12 UTC
Wind 3 kt aus unterschiedlichen Richtungen
Sichtweite 10 km oder mehr
Durchbrochene Bewölkung in der Höhe von 3500 ft

TAF: AYPY 280930Z 2812/2912 VRB03KT 9999 -R ADZ Z BKN035

Wetterbeobachtungen und Prognosen von mehr als 4000 Flughäfen (METAR und TAF Bericht).

Die verfügbaren Stationen werden durch gelbe und rote Markierungen auf der Karte dargestellt.

Führen Sie die Maus auf sie, um den Namen der Station zu sehen.

Darauf klicken, um die Beobachtung von Wetterbeobachtungen und Prognosen zu sehen.

Um die Karte zu ändern : klicken Sie auf den grünen Tasten mit einem schwarzen Kreuz Zum Vergrößern, auf den grünen Button mit einem Gedankenstrich zu verkleinern, oder auf die grünen Pfeile für benachbarte Karten.


METAR-TAF: